sensor_id;sensor_type;location;lat;lon;timestamp;P1;durP1;ratioP1;P2;durP2;ratioP2
50781;SDS011;36749;37.428;-121.972;2023-11-21T00:00:34;3.38;;;1.38;;
50781;SDS011;36749;37.428;-121.972;2023-11-21T00:03:00;6.13;;;1.40;;
50781;SDS011;36749;37.428;-121.972;2023-11-21T00:05:27;4.07;;;0.90;;
50781;SDS011;36749;37.428;-121.972;2023-11-21T00:07:53;2.08;;;1.27;;
50781;SDS011;36749;37.428;-121.972;2023-11-21T00:10:20;3.35;;;1.40;;
50781;SDS011;36749;37.428;-121.972;2023-11-21T00:12:46;3.55;;;1.30;;
50781;SDS011;36749;37.428;-121.972;2023-11-21T00:15:13;2.95;;;1.48;;
50781;SDS011;36749;37.428;-121.972;2023-11-21T00:17:40;3.25;;;1.27;;
50781;SDS011;36749;37.428;-121.972;2023-11-21T00:20:06;4.43;;;1.00;;
50781;SDS011;36749;37.428;-121.972;2023-11-21T00:22:34;5.63;;;1.48;;
50781;SDS011;36749;37.428;-121.972;2023-11-21T00:25:00;3.55;;;1.50;;
50781;SDS011;36749;37.428;-121.972;2023-11-21T00:27:29;3.88;;;1.58;;
50781;SDS011;36749;37.428;-121.972;2023-11-21T00:29:56;1.20;;;1.10;;
50781;SDS011;36749;37.428;-121.972;2023-11-21T00:32:22;2.17;;;1.30;;
50781;SDS011;36749;37.428;-121.972;2023-11-21T00:34:48;4.03;;;1.50;;
50781;SDS011;36749;37.428;-121.972;2023-11-21T00:37:15;3.13;;;1.70;;
50781;SDS011;36749;37.428;-121.972;2023-11-21T00:39:41;2.22;;;1.45;;
50781;SDS011;36749;37.428;-121.972;2023-11-21T00:42:07;2.53;;;1.63;;
50781;SDS011;36749;37.428;-121.972;2023-11-21T00:44:33;5.05;;;1.60;;
50781;SDS011;36749;37.428;-121.972;2023-11-21T00:47:00;5.30;;;1.88;;
50781;SDS011;36749;37.428;-121.972;2023-11-21T00:49:26;1.83;;;1.35;;
50781;SDS011;36749;37.428;-121.972;2023-11-21T00:51:53;3.03;;;1.25;;
50781;SDS011;36749;37.428;-121.972;2023-11-21T00:54:19;4.93;;;1.83;;
50781;SDS011;36749;37.428;-121.972;2023-11-21T00:56:45;1.63;;;1.45;;
50781;SDS011;36749;37.428;-121.972;2023-11-21T00:59:13;4.90;;;1.33;;
50781;SDS011;36749;37.428;-121.972;2023-11-21T01:01:39;2.28;;;1.40;;
50781;SDS011;36749;37.428;-121.972;2023-11-21T01:04:06;9.52;;;2.13;;
50781;SDS011;36749;37.428;-121.972;2023-11-21T01:06:32;3.53;;;1.55;;
50781;SDS011;36749;37.428;-121.972;2023-11-21T01:08:58;4.22;;;1.58;;
50781;SDS011;36749;37.428;-121.972;2023-11-21T01:11:24;5.60;;;1.77;;
50781;SDS011;36749;37.428;-121.972;2023-11-21T01:13:51;4.47;;;1.63;;
50781;SDS011;36749;37.428;-121.972;2023-11-21T01:16:18;4.70;;;1.48;;
50781;SDS011;36749;37.428;-121.972;2023-11-21T01:18:45;3.15;;;1.25;;
50781;SDS011;36749;37.428;-121.972;2023-11-21T01:21:11;5.18;;;1.58;;
50781;SDS011;36749;37.428;-121.972;2023-11-21T01:23:37;6.07;;;1.70;;
50781;SDS011;36749;37.428;-121.972;2023-11-21T01:26:03;3.10;;;1.48;;
50781;SDS011;36749;37.428;-121.972;2023-11-21T01:28:30;2.30;;;1.48;;
50781;SDS011;36749;37.428;-121.972;2023-11-21T01:30:56;9.70;;;1.48;;
50781;SDS011;36749;37.428;-121.972;2023-11-21T01:33:23;2.92;;;1.23;;
50781;SDS011;36749;37.428;-121.972;2023-11-21T01:35:50;4.72;;;1.70;;
50781;SDS011;36749;37.428;-121.972;2023-11-21T01:38:20;4.28;;;1.45;;
50781;SDS011;36749;37.428;-121.972;2023-11-21T01:40:48;1.67;;;1.42;;
50781;SDS011;36749;37.428;-121.972;2023-11-21T01:43:14;1.40;;;1.30;;
50781;SDS011;36749;37.428;-121.972;2023-11-21T01:45:42;5.15;;;1.75;;
50781;SDS011;36749;37.428;-121.972;2023-11-21T01:48:11;8.93;;;2.08;;
50781;SDS011;36749;37.428;-121.972;2023-11-21T01:50:38;4.53;;;1.60;;
50781;SDS011;36749;37.428;-121.972;2023-11-21T01:53:05;5.10;;;1.40;;
50781;SDS011;36749;37.428;-121.972;2023-11-21T01:55:33;5.40;;;1.73;;
50781;SDS011;36749;37.428;-121.972;2023-11-21T01:58:00;3.63;;;1.35;;
50781;SDS011;36749;37.428;-121.972;2023-11-21T02:00:28;4.63;;;1.80;;
50781;SDS011;36749;37.428;-121.972;2023-11-21T02:03:00;5.00;;;1.95;;
50781;SDS011;36749;37.428;-121.972;2023-11-21T02:05:28;2.63;;;1.50;;
50781;SDS011;36749;37.428;-121.972;2023-11-21T02:07:56;6.22;;;1.90;;
50781;SDS011;36749;37.428;-121.972;2023-11-21T02:10:23;1.77;;;1.45;;
50781;SDS011;36749;37.428;-121.972;2023-11-21T02:12:51;3.97;;;1.60;;
50781;SDS011;36749;37.428;-121.972;2023-11-21T02:15:18;4.40;;;1.40;;
50781;SDS011;36749;37.428;-121.972;2023-11-21T02:17:47;3.60;;;1.45;;
50781;SDS011;36749;37.428;-121.972;2023-11-21T02:20:17;4.30;;;1.70;;
50781;SDS011;36749;37.428;-121.972;2023-11-21T02:22:55;2.17;;;1.48;;
50781;SDS011;36749;37.428;-121.972;2023-11-21T02:25:29;1.52;;;1.33;;
50781;SDS011;36749;37.428;-121.972;2023-11-21T02:28:02;2.58;;;1.50;;
50781;SDS011;36749;37.428;-121.972;2023-11-21T02:30:34;3.30;;;1.75;;
50781;SDS011;36749;37.428;-121.972;2023-11-21T02:33:02;6.57;;;1.75;;
50781;SDS011;36749;37.428;-121.972;2023-11-21T02:35:31;2.83;;;1.90;;
50781;SDS011;36749;37.428;-121.972;2023-11-21T02:37:58;5.93;;;2.50;;
50781;SDS011;36749;37.428;-121.972;2023-11-21T02:40:26;5.13;;;1.90;;
50781;SDS011;36749;37.428;-121.972;2023-11-21T02:42:52;5.72;;;2.58;;
50781;SDS011;36749;37.428;-121.972;2023-11-21T02:45:20;5.07;;;3.85;;
50781;SDS011;36749;37.428;-121.972;2023-11-21T02:47:47;5.25;;;3.30;;
50781;SDS011;36749;37.428;-121.972;2023-11-21T02:50:18;9.73;;;3.08;;
50781;SDS011;36749;37.428;-121.972;2023-11-21T02:52:45;9.57;;;3.08;;
50781;SDS011;36749;37.428;-121.972;2023-11-21T02:55:12;5.82;;;2.70;;
50781;SDS011;36749;37.428;-121.972;2023-11-21T02:58:01;8.98;;;3.33;;
50781;SDS011;36749;37.428;-121.972;2023-11-21T03:00:31;5.40;;;2.22;;
50781;SDS011;36749;37.428;-121.972;2023-11-21T03:02:58;7.05;;;2.38;;
50781;SDS011;36749;37.428;-121.972;2023-11-21T03:05:26;5.72;;;2.20;;
50781;SDS011;36749;37.428;-121.972;2023-11-21T03:07:57;6.20;;;2.42;;
50781;SDS011;36749;37.428;-121.972;2023-11-21T03:10:24;4.75;;;2.20;;
50781;SDS011;36749;37.428;-121.972;2023-11-21T03:12:51;5.95;;;2.83;;
50781;SDS011;36749;37.428;-121.972;2023-11-21T03:15:18;4.90;;;2.10;;
50781;SDS011;36749;37.428;-121.972;2023-11-21T03:17:45;7.68;;;2.35;;
50781;SDS011;36749;37.428;-121.972;2023-11-21T03:20:33;4.80;;;2.10;;
50781;SDS011;36749;37.428;-121.972;2023-11-21T03:23:01;4.60;;;1.92;;
50781;SDS011;36749;37.428;-121.972;2023-11-21T03:25:28;8.93;;;3.08;;
50781;SDS011;36749;37.428;-121.972;2023-11-21T03:27:55;7.82;;;2.22;;
50781;SDS011;36749;37.428;-121.972;2023-11-21T03:30:22;4.03;;;2.38;;
50781;SDS011;36749;37.428;-121.972;2023-11-21T03:32:48;4.95;;;2.20;;
50781;SDS011;36749;37.428;-121.972;2023-11-21T03:35:15;6.88;;;2.13;;
50781;SDS011;36749;37.428;-121.972;2023-11-21T03:37:41;4.32;;;2.03;;
50781;SDS011;36749;37.428;-121.972;2023-11-21T03:40:08;5.05;;;2.42;;
50781;SDS011;36749;37.428;-121.972;2023-11-21T03:42:35;4.18;;;2.10;;
50781;SDS011;36749;37.428;-121.972;2023-11-21T03:45:01;6.80;;;2.65;;
50781;SDS011;36749;37.428;-121.972;2023-11-21T03:47:29;5.32;;;2.20;;
50781;SDS011;36749;37.428;-121.972;2023-11-21T03:49:55;4.43;;;2.17;;
50781;SDS011;36749;37.428;-121.972;2023-11-21T03:52:21;5.90;;;2.67;;
50781;SDS011;36749;37.428;-121.972;2023-11-21T03:54:48;5.10;;;2.10;;
50781;SDS011;36749;37.428;-121.972;2023-11-21T03:57:14;7.35;;;2.90;;
50781;SDS011;36749;37.428;-121.972;2023-11-21T03:59:40;5.55;;;2.30;;
50781;SDS011;36749;37.428;-121.972;2023-11-21T04:02:07;6.43;;;2.78;;
50781;SDS011;36749;37.428;-121.972;2023-11-21T04:04:34;6.10;;;2.33;;
50781;SDS011;36749;37.428;-121.972;2023-11-21T04:07:01;6.07;;;2.22;;
50781;SDS011;36749;37.428;-121.972;2023-11-21T04:09:28;6.50;;;2.67;;
50781;SDS011;36749;37.428;-121.972;2023-11-21T04:11:54;4.22;;;2.28;;
50781;SDS011;36749;37.428;-121.972;2023-11-21T04:14:20;5.28;;;2.67;;
50781;SDS011;36749;37.428;-121.972;2023-11-21T04:16:48;6.45;;;2.80;;
50781;SDS011;36749;37.428;-121.972;2023-11-21T04:19:14;4.05;;;2.30;;
50781;SDS011;36749;37.428;-121.972;2023-11-21T04:21:41;4.57;;;2.20;;
50781;SDS011;36749;37.428;-121.972;2023-11-21T04:24:07;7.25;;;2.80;;
50781;SDS011;36749;37.428;-121.972;2023-11-21T04:26:34;8.18;;;3.53;;
50781;SDS011;36749;37.428;-121.972;2023-11-21T04:29:00;5.38;;;2.65;;
50781;SDS011;36749;37.428;-121.972;2023-11-21T04:31:26;6.75;;;2.70;;
50781;SDS011;36749;37.428;-121.972;2023-11-21T04:33:52;8.40;;;2.60;;
50781;SDS011;36749;37.428;-121.972;2023-11-21T04:36:18;8.57;;;2.70;;
50781;SDS011;36749;37.428;-121.972;2023-11-21T04:38:45;5.53;;;2.60;;
50781;SDS011;36749;37.428;-121.972;2023-11-21T04:41:11;5.13;;;2.58;;
50781;SDS011;36749;37.428;-121.972;2023-11-21T04:43:37;8.30;;;2.90;;
50781;SDS011;36749;37.428;-121.972;2023-11-21T04:46:04;8.48;;;3.10;;
50781;SDS011;36749;37.428;-121.972;2023-11-21T04:48:30;7.60;;;2.92;;
50781;SDS011;36749;37.428;-121.972;2023-11-21T04:50:56;7.30;;;2.70;;
50781;SDS011;36749;37.428;-121.972;2023-11-21T04:53:22;6.68;;;3.15;;
50781;SDS011;36749;37.428;-121.972;2023-11-21T04:55:48;9.73;;;3.63;;
50781;SDS011;36749;37.428;-121.972;2023-11-21T04:58:15;7.90;;;3.42;;
50781;SDS011;36749;37.428;-121.972;2023-11-21T05:00:41;8.18;;;3.45;;
50781;SDS011;36749;37.428;-121.972;2023-11-21T05:03:07;10.50;;;3.75;;
50781;SDS011;36749;37.428;-121.972;2023-11-21T05:05:34;8.55;;;3.63;;
50781;SDS011;36749;37.428;-121.972;2023-11-21T05:08:01;14.75;;;4.40;;
50781;SDS011;36749;37.428;-121.972;2023-11-21T05:10:27;9.10;;;3.40;;
50781;SDS011;36749;37.428;-121.972;2023-11-21T05:12:54;12.20;;;3.55;;
50781;SDS011;36749;37.428;-121.972;2023-11-21T05:15:20;8.50;;;3.38;;
50781;SDS011;36749;37.428;-121.972;2023-11-21T05:17:47;10.00;;;3.83;;
50781;SDS011;36749;37.428;-121.972;2023-11-21T05:20:17;10.65;;;4.10;;
50781;SDS011;36749;37.428;-121.972;2023-11-21T05:22:49;10.48;;;3.95;;
50781;SDS011;36749;37.428;-121.972;2023-11-21T05:25:16;12.43;;;4.78;;
50781;SDS011;36749;37.428;-121.972;2023-11-21T05:27:47;10.35;;;4.25;;
50781;SDS011;36749;37.428;-121.972;2023-11-21T05:30:13;11.48;;;4.45;;
50781;SDS011;36749;37.428;-121.972;2023-11-21T05:32:40;9.63;;;4.30;;
50781;SDS011;36749;37.428;-121.972;2023-11-21T05:35:09;12.75;;;4.72;;
50781;SDS011;36749;37.428;-121.972;2023-11-21T05:37:41;9.88;;;4.25;;
50781;SDS011;36749;37.428;-121.972;2023-11-21T05:40:08;13.27;;;5.03;;
50781;SDS011;36749;37.428;-121.972;2023-11-21T05:42:35;10.85;;;4.70;;
50781;SDS011;36749;37.428;-121.972;2023-11-21T05:45:03;13.57;;;4.30;;
50781;SDS011;36749;37.428;-121.972;2023-11-21T05:47:48;12.43;;;5.07;;
50781;SDS011;36749;37.428;-121.972;2023-11-21T05:50:15;14.82;;;4.95;;
50781;SDS011;36749;37.428;-121.972;2023-11-21T05:52:43;13.77;;;5.10;;
50781;SDS011;36749;37.428;-121.972;2023-11-21T05:55:10;13.45;;;4.88;;
50781;SDS011;36749;37.428;-121.972;2023-11-21T05:57:37;13.73;;;5.07;;
50781;SDS011;36749;37.428;-121.972;2023-11-21T06:02:36;11.27;;;4.82;;
50781;SDS011;36749;37.428;-121.972;2023-11-21T06:05:04;10.65;;;4.28;;
50781;SDS011;36749;37.428;-121.972;2023-11-21T06:07:31;13.20;;;4.80;;
50781;SDS011;36749;37.428;-121.972;2023-11-21T06:09:57;11.18;;;4.38;;
50781;SDS011;36749;37.428;-121.972;2023-11-21T06:12:23;14.32;;;5.20;;
50781;SDS011;36749;37.428;-121.972;2023-11-21T06:14:49;10.75;;;4.82;;
50781;SDS011;36749;37.428;-121.972;2023-11-21T06:17:16;9.38;;;4.18;;
50781;SDS011;36749;37.428;-121.972;2023-11-21T06:19:43;10.15;;;4.90;;
50781;SDS011;36749;37.428;-121.972;2023-11-21T06:22:11;12.85;;;4.50;;
50781;SDS011;36749;37.428;-121.972;2023-11-21T06:24:37;11.48;;;4.82;;
50781;SDS011;36749;37.428;-121.972;2023-11-21T06:27:04;7.88;;;3.90;;
50781;SDS011;36749;37.428;-121.972;2023-11-21T06:29:30;9.98;;;4.07;;
50781;SDS011;36749;37.428;-121.972;2023-11-21T06:31:57;9.57;;;4.65;;
50781;SDS011;36749;37.428;-121.972;2023-11-21T06:34:23;10.13;;;4.45;;
50781;SDS011;36749;37.428;-121.972;2023-11-21T06:36:50;12.18;;;4.90;;
50781;SDS011;36749;37.428;-121.972;2023-11-21T06:39:16;11.77;;;4.65;;
50781;SDS011;36749;37.428;-121.972;2023-11-21T06:41:43;14.20;;;5.28;;
50781;SDS011;36749;37.428;-121.972;2023-11-21T06:44:09;13.43;;;4.38;;
50781;SDS011;36749;37.428;-121.972;2023-11-21T06:46:35;9.75;;;4.40;;
50781;SDS011;36749;37.428;-121.972;2023-11-21T06:49:03;9.48;;;4.20;;
50781;SDS011;36749;37.428;-121.972;2023-11-21T06:51:29;14.05;;;4.95;;
50781;SDS011;36749;37.428;-121.972;2023-11-21T06:53:56;11.95;;;4.97;;
50781;SDS011;36749;37.428;-121.972;2023-11-21T06:56:22;12.05;;;4.88;;
50781;SDS011;36749;37.428;-121.972;2023-11-21T06:58:48;12.43;;;4.47;;
50781;SDS011;36749;37.428;-121.972;2023-11-21T07:01:19;10.02;;;4.38;;
50781;SDS011;36749;37.428;-121.972;2023-11-21T07:03:45;12.70;;;4.40;;
50781;SDS011;36749;37.428;-121.972;2023-11-21T07:06:11;10.20;;;4.53;;
50781;SDS011;36749;37.428;-121.972;2023-11-21T07:08:38;10.88;;;4.80;;
50781;SDS011;36749;37.428;-121.972;2023-11-21T07:11:04;10.50;;;4.40;;
50781;SDS011;36749;37.428;-121.972;2023-11-21T07:13:30;9.27;;;4.05;;
50781;SDS011;36749;37.428;-121.972;2023-11-21T07:15:59;9.55;;;4.38;;
50781;SDS011;36749;37.428;-121.972;2023-11-21T07:18:26;10.15;;;3.90;;
50781;SDS011;36749;37.428;-121.972;2023-11-21T07:20:52;10.63;;;4.10;;
50781;SDS011;36749;37.428;-121.972;2023-11-21T07:23:18;11.57;;;4.68;;
50781;SDS011;36749;37.428;-121.972;2023-11-21T07:25:44;17.58;;;7.05;;
50781;SDS011;36749;37.428;-121.972;2023-11-21T07:28:11;12.75;;;5.32;;
50781;SDS011;36749;37.428;-121.972;2023-11-21T07:30:37;11.75;;;4.63;;
50781;SDS011;36749;37.428;-121.972;2023-11-21T07:33:03;11.75;;;4.68;;
50781;SDS011;36749;37.428;-121.972;2023-11-21T07:35:29;10.20;;;4.50;;
50781;SDS011;36749;37.428;-121.972;2023-11-21T07:38:15;8.18;;;4.00;;
50781;SDS011;36749;37.428;-121.972;2023-11-21T07:40:42;8.88;;;4.22;;
50781;SDS011;36749;37.428;-121.972;2023-11-21T07:43:08;11.85;;;4.68;;
50781;SDS011;36749;37.428;-121.972;2023-11-21T07:45:34;11.52;;;4.43;;
50781;SDS011;36749;37.428;-121.972;2023-11-21T07:48:00;12.38;;;4.38;;
50781;SDS011;36749;37.428;-121.972;2023-11-21T07:50:28;11.30;;;4.43;;
50781;SDS011;36749;37.428;-121.972;2023-11-21T07:52:55;14.68;;;4.68;;
50781;SDS011;36749;37.428;-121.972;2023-11-21T07:55:21;12.30;;;4.30;;
50781;SDS011;36749;37.428;-121.972;2023-11-21T07:57:47;11.10;;;4.28;;
50781;SDS011;36749;37.428;-121.972;2023-11-21T08:00:14;9.30;;;3.92;;
50781;SDS011;36749;37.428;-121.972;2023-11-21T08:02:40;6.95;;;3.70;;
50781;SDS011;36749;37.428;-121.972;2023-11-21T08:05:08;10.93;;;4.22;;
50781;SDS011;36749;37.428;-121.972;2023-11-21T08:07:34;13.20;;;4.47;;
50781;SDS011;36749;37.428;-121.972;2023-11-21T08:10:01;12.85;;;4.10;;
50781;SDS011;36749;37.428;-121.972;2023-11-21T08:12:27;11.05;;;3.72;;
50781;SDS011;36749;37.428;-121.972;2023-11-21T08:14:53;10.40;;;3.95;;
50781;SDS011;36749;37.428;-121.972;2023-11-21T08:17:20;11.85;;;4.38;;
50781;SDS011;36749;37.428;-121.972;2023-11-21T08:19:46;8.05;;;4.13;;
50781;SDS011;36749;37.428;-121.972;2023-11-21T08:22:17;8.25;;;3.75;;
50781;SDS011;36749;37.428;-121.972;2023-11-21T08:24:43;10.82;;;4.47;;
50781;SDS011;36749;37.428;-121.972;2023-11-21T08:27:10;11.93;;;4.70;;
50781;SDS011;36749;37.428;-121.972;2023-11-21T08:29:36;11.40;;;4.05;;
50781;SDS011;36749;37.428;-121.972;2023-11-21T08:32:02;14.68;;;5.63;;
50781;SDS011;36749;37.428;-121.972;2023-11-21T08:34:30;12.88;;;5.38;;
50781;SDS011;36749;37.428;-121.972;2023-11-21T08:36:56;10.63;;;4.70;;
50781;SDS011;36749;37.428;-121.972;2023-11-21T08:39:22;11.07;;;4.75;;
50781;SDS011;36749;37.428;-121.972;2023-11-21T08:41:49;11.07;;;4.53;;
50781;SDS011;36749;37.428;-121.972;2023-11-21T08:44:16;9.00;;;4.22;;
50781;SDS011;36749;37.428;-121.972;2023-11-21T08:46:46;16.13;;;4.95;;
50781;SDS011;36749;37.428;-121.972;2023-11-21T08:49:13;16.80;;;5.95;;
50781;SDS011;36749;37.428;-121.972;2023-11-21T08:51:40;18.10;;;6.65;;
50781;SDS011;36749;37.428;-121.972;2023-11-21T08:54:06;18.48;;;6.90;;
50781;SDS011;36749;37.428;-121.972;2023-11-21T08:56:37;15.35;;;6.65;;
50781;SDS011;36749;37.428;-121.972;2023-11-21T08:59:26;13.35;;;5.97;;
50781;SDS011;36749;37.428;-121.972;2023-11-21T09:01:52;9.63;;;4.35;;
50781;SDS011;36749;37.428;-121.972;2023-11-21T09:04:18;12.90;;;4.88;;
50781;SDS011;36749;37.428;-121.972;2023-11-21T09:06:44;12.95;;;4.70;;
50781;SDS011;36749;37.428;-121.972;2023-11-21T09:09:10;13.15;;;5.70;;
50781;SDS011;36749;37.428;-121.972;2023-11-21T09:11:37;9.85;;;4.20;;
50781;SDS011;36749;37.428;-121.972;2023-11-21T09:14:03;11.23;;;4.50;;
50781;SDS011;36749;37.428;-121.972;2023-11-21T09:16:29;9.80;;;4.30;;
50781;SDS011;36749;37.428;-121.972;2023-11-21T09:18:55;9.60;;;4.07;;
50781;SDS011;36749;37.428;-121.972;2023-11-21T09:21:21;22.48;;;4.80;;
50781;SDS011;36749;37.428;-121.972;2023-11-21T09:23:48;9.73;;;3.88;;
50781;SDS011;36749;37.428;-121.972;2023-11-21T09:26:15;9.68;;;3.78;;
50781;SDS011;36749;37.428;-121.972;2023-11-21T09:28:43;13.23;;;4.53;;
50781;SDS011;36749;37.428;-121.972;2023-11-21T09:31:12;8.43;;;4.90;;
50781;SDS011;36749;37.428;-121.972;2023-11-21T09:33:44;8.70;;;4.07;;
50781;SDS011;36749;37.428;-121.972;2023-11-21T09:36:13;10.32;;;4.55;;
50781;SDS011;36749;37.428;-121.972;2023-11-21T09:38:42;10.00;;;4.50;;
50781;SDS011;36749;37.428;-121.972;2023-11-21T09:41:15;12.52;;;4.55;;
50781;SDS011;36749;37.428;-121.972;2023-11-21T09:43:49;11.20;;;4.75;;
50781;SDS011;36749;37.428;-121.972;2023-11-21T09:46:18;13.13;;;5.20;;
50781;SDS011;36749;37.428;-121.972;2023-11-21T09:48:50;12.95;;;4.75;;
50781;SDS011;36749;37.428;-121.972;2023-11-21T09:51:19;11.57;;;4.18;;
50781;SDS011;36749;37.428;-121.972;2023-11-21T09:53:47;9.63;;;4.05;;
50781;SDS011;36749;37.428;-121.972;2023-11-21T09:56:17;11.30;;;4.30;;
50781;SDS011;36749;37.428;-121.972;2023-11-21T09:58:50;7.50;;;3.55;;
50781;SDS011;36749;37.428;-121.972;2023-11-21T10:01:21;10.35;;;4.85;;
50781;SDS011;36749;37.428;-121.972;2023-11-21T10:03:48;11.77;;;4.88;;
50781;SDS011;36749;37.428;-121.972;2023-11-21T10:06:15;12.48;;;4.80;;
50781;SDS011;36749;37.428;-121.972;2023-11-21T10:08:42;11.65;;;4.60;;
50781;SDS011;36749;37.428;-121.972;2023-11-21T10:11:09;13.25;;;4.32;;
50781;SDS011;36749;37.428;-121.972;2023-11-21T10:13:37;12.68;;;4.70;;
50781;SDS011;36749;37.428;-121.972;2023-11-21T10:16:04;10.93;;;4.57;;
50781;SDS011;36749;37.428;-121.972;2023-11-21T10:18:32;12.75;;;4.55;;
50781;SDS011;36749;37.428;-121.972;2023-11-21T10:20:59;15.55;;;4.53;;
50781;SDS011;36749;37.428;-121.972;2023-11-21T10:23:26;12.05;;;4.47;;
50781;SDS011;36749;37.428;-121.972;2023-11-21T10:25:53;12.98;;;4.60;;
50781;SDS011;36749;37.428;-121.972;2023-11-21T10:28:24;10.43;;;4.80;;
50781;SDS011;36749;37.428;-121.972;2023-11-21T10:30:50;12.40;;;4.57;;
50781;SDS011;36749;37.428;-121.972;2023-11-21T10:33:17;11.70;;;4.63;;
50781;SDS011;36749;37.428;-121.972;2023-11-21T10:35:53;11.68;;;3.90;;
50781;SDS011;36749;37.428;-121.972;2023-11-21T10:38:20;9.85;;;4.30;;
50781;SDS011;36749;37.428;-121.972;2023-11-21T10:40:48;9.80;;;4.00;;
50781;SDS011;36749;37.428;-121.972;2023-11-21T10:43:15;11.60;;;4.93;;
50781;SDS011;36749;37.428;-121.972;2023-11-21T10:45:41;11.40;;;4.70;;
50781;SDS011;36749;37.428;-121.972;2023-11-21T10:48:15;8.68;;;4.07;;
50781;SDS011;36749;37.428;-121.972;2023-11-21T10:50:42;9.02;;;4.20;;
50781;SDS011;36749;37.428;-121.972;2023-11-21T10:53:09;9.30;;;4.90;;
50781;SDS011;36749;37.428;-121.972;2023-11-21T10:55:37;14.98;;;4.90;;
50781;SDS011;36749;37.428;-121.972;2023-11-21T10:58:03;9.60;;;3.90;;
50781;SDS011;36749;37.428;-121.972;2023-11-21T11:00:31;12.43;;;5.03;;
50781;SDS011;36749;37.428;-121.972;2023-11-21T11:02:58;10.45;;;4.60;;
50781;SDS011;36749;37.428;-121.972;2023-11-21T11:05:26;10.50;;;4.60;;
50781;SDS011;36749;37.428;-121.972;2023-11-21T11:10:28;9.70;;;4.40;;
50781;SDS011;36749;37.428;-121.972;2023-11-21T11:12:57;6.90;;;3.75;;
50781;SDS011;36749;37.428;-121.972;2023-11-21T11:15:24;8.43;;;3.85;;
50781;SDS011;36749;37.428;-121.972;2023-11-21T11:17:51;11.32;;;4.35;;
50781;SDS011;36749;37.428;-121.972;2023-11-21T11:20:17;12.45;;;4.65;;
50781;SDS011;36749;37.428;-121.972;2023-11-21T11:22:56;9.95;;;3.95;;
50781;SDS011;36749;37.428;-121.972;2023-11-21T11:25:41;9.65;;;4.00;;
50781;SDS011;36749;37.428;-121.972;2023-11-21T11:28:27;6.88;;;3.63;;
50781;SDS011;36749;37.428;-121.972;2023-11-21T11:33:58;9.30;;;4.65;;
50781;SDS011;36749;37.428;-121.972;2023-11-21T11:36:44;11.15;;;3.83;;
50781;SDS011;36749;37.428;-121.972;2023-11-21T11:39:33;10.30;;;4.18;;
50781;SDS011;36749;37.428;-121.972;2023-11-21T11:42:08;10.20;;;3.97;;
50781;SDS011;36749;37.428;-121.972;2023-11-21T11:47:15;9.68;;;4.57;;
50781;SDS011;36749;37.428;-121.972;2023-11-21T11:52:46;8.18;;;3.88;;
50781;SDS011;36749;37.428;-121.972;2023-11-21T11:55:16;10.68;;;4.45;;
50781;SDS011;36749;37.428;-121.972;2023-11-21T11:57:44;7.85;;;3.45;;
50781;SDS011;36749;37.428;-121.972;2023-11-21T12:00:33;11.15;;;4.45;;
50781;SDS011;36749;37.428;-121.972;2023-11-21T12:03:02;10.05;;;3.97;;
50781;SDS011;36749;37.428;-121.972;2023-11-21T12:05:30;7.88;;;4.65;;
50781;SDS011;36749;37.428;-121.972;2023-11-21T12:08:10;8.07;;;3.58;;
50781;SDS011;36749;37.428;-121.972;2023-11-21T12:10:37;11.23;;;4.70;;
50781;SDS011;36749;37.428;-121.972;2023-11-21T12:13:06;8.63;;;4.20;;
50781;SDS011;36749;37.428;-121.972;2023-11-21T12:15:34;13.45;;;5.25;;
50781;SDS011;36749;37.428;-121.972;2023-11-21T12:18:00;10.75;;;4.60;;
50781;SDS011;36749;37.428;-121.972;2023-11-21T12:20:27;12.02;;;4.68;;
50781;SDS011;36749;37.428;-121.972;2023-11-21T12:22:59;11.38;;;4.07;;
50781;SDS011;36749;37.428;-121.972;2023-11-21T12:25:26;10.30;;;5.25;;
50781;SDS011;36749;37.428;-121.972;2023-11-21T12:27:54;11.23;;;4.78;;
50781;SDS011;36749;37.428;-121.972;2023-11-21T12:30:22;11.02;;;4.50;;
50781;SDS011;36749;37.428;-121.972;2023-11-21T12:32:49;11.88;;;4.07;;
50781;SDS011;36749;37.428;-121.972;2023-11-21T12:35:17;9.25;;;4.03;;
50781;SDS011;36749;37.428;-121.972;2023-11-21T12:37:47;12.15;;;4.10;;
50781;SDS011;36749;37.428;-121.972;2023-11-21T12:40:14;8.77;;;3.97;;
50781;SDS011;36749;37.428;-121.972;2023-11-21T12:42:43;8.85;;;3.75;;
50781;SDS011;36749;37.428;-121.972;2023-11-21T12:45:20;9.85;;;4.03;;
50781;SDS011;36749;37.428;-121.972;2023-11-21T12:47:48;12.50;;;4.03;;
50781;SDS011;36749;37.428;-121.972;2023-11-21T12:50:22;11.57;;;3.80;;
50781;SDS011;36749;37.428;-121.972;2023-11-21T12:52:52;13.32;;;4.40;;
50781;SDS011;36749;37.428;-121.972;2023-11-21T12:55:21;10.20;;;4.63;;
50781;SDS011;36749;37.428;-121.972;2023-11-21T12:57:54;8.65;;;3.90;;
50781;SDS011;36749;37.428;-121.972;2023-11-21T13:00:34;11.73;;;4.25;;
50781;SDS011;36749;37.428;-121.972;2023-11-21T13:03:05;8.90;;;3.90;;
50781;SDS011;36749;37.428;-121.972;2023-11-21T13:05:33;8.73;;;3.22;;
50781;SDS011;36749;37.428;-121.972;2023-11-21T13:08:02;11.65;;;4.25;;
50781;SDS011;36749;37.428;-121.972;2023-11-21T13:10:30;9.95;;;4.20;;
50781;SDS011;36749;37.428;-121.972;2023-11-21T13:13:00;11.32;;;4.75;;
50781;SDS011;36749;37.428;-121.972;2023-11-21T13:15:30;8.90;;;3.90;;
50781;SDS011;36749;37.428;-121.972;2023-11-21T13:17:58;10.13;;;4.25;;
50781;SDS011;36749;37.428;-121.972;2023-11-21T13:20:25;12.65;;;4.53;;
50781;SDS011;36749;37.428;-121.972;2023-11-21T13:22:52;10.85;;;4.00;;
50781;SDS011;36749;37.428;-121.972;2023-11-21T13:25:20;10.38;;;4.80;;
50781;SDS011;36749;37.428;-121.972;2023-11-21T13:27:47;11.65;;;5.38;;
50781;SDS011;36749;37.428;-121.972;2023-11-21T13:30:13;7.80;;;4.07;;
50781;SDS011;36749;37.428;-121.972;2023-11-21T13:32:48;11.50;;;4.35;;
50781;SDS011;36749;37.428;-121.972;2023-11-21T13:35:18;13.63;;;4.57;;
50781;SDS011;36749;37.428;-121.972;2023-11-21T13:37:56;9.52;;;4.60;;
50781;SDS011;36749;37.428;-121.972;2023-11-21T13:40:25;8.30;;;3.75;;
50781;SDS011;36749;37.428;-121.972;2023-11-21T13:42:54;13.10;;;3.97;;
50781;SDS011;36749;37.428;-121.972;2023-11-21T13:45:24;10.68;;;4.22;;
50781;SDS011;36749;37.428;-121.972;2023-11-21T13:47:53;9.75;;;4.25;;
50781;SDS011;36749;37.428;-121.972;2023-11-21T13:50:27;8.25;;;3.55;;
50781;SDS011;36749;37.428;-121.972;2023-11-21T13:53:02;9.60;;;3.70;;
50781;SDS011;36749;37.428;-121.972;2023-11-21T13:55:51;8.55;;;3.65;;
50781;SDS011;36749;37.428;-121.972;2023-11-21T13:58:23;7.47;;;3.92;;
50781;SDS011;36749;37.428;-121.972;2023-11-21T14:01:12;9.10;;;4.43;;
50781;SDS011;36749;37.428;-121.972;2023-11-21T14:04:00;9.07;;;4.15;;
50781;SDS011;36749;37.428;-121.972;2023-11-21T14:06:37;7.55;;;3.42;;
50781;SDS011;36749;37.428;-121.972;2023-11-21T14:09:14;7.18;;;3.88;;
50781;SDS011;36749;37.428;-121.972;2023-11-21T14:12:01;9.98;;;4.05;;
50781;SDS011;36749;37.428;-121.972;2023-11-21T14:14:31;9.45;;;3.85;;
50781;SDS011;36749;37.428;-121.972;2023-11-21T14:16:57;10.25;;;4.55;;
50781;SDS011;36749;37.428;-121.972;2023-11-21T14:19:32;7.38;;;4.07;;
50781;SDS011;36749;37.428;-121.972;2023-11-21T14:21:59;10.02;;;4.80;;
50781;SDS011;36749;37.428;-121.972;2023-11-21T14:24:26;8.85;;;4.57;;